sensor_id;sensor_type;location;lat;lon;timestamp;P1;durP1;ratioP1;P2;durP2;ratioP2
19191;SDS011;9728;48.194;16.346;2023-02-28T00:03:35;4.73;;;2.90;;
19191;SDS011;9728;48.194;16.346;2023-02-28T00:08:38;4.83;;;3.13;;
19191;SDS011;9728;48.194;16.346;2023-02-28T00:13:43;5.83;;;3.23;;
19191;SDS011;9728;48.194;16.346;2023-02-28T00:18:50;3.60;;;3.00;;
19191;SDS011;9728;48.194;16.346;2023-02-28T00:23:53;5.60;;;2.93;;
19191;SDS011;9728;48.194;16.346;2023-02-28T00:28:57;5.07;;;2.73;;
19191;SDS011;9728;48.194;16.346;2023-02-28T00:34:02;4.40;;;2.70;;
19191;SDS011;9728;48.194;16.346;2023-02-28T00:39:05;4.73;;;2.87;;
19191;SDS011;9728;48.194;16.346;2023-02-28T00:44:09;3.97;;;2.57;;
19191;SDS011;9728;48.194;16.346;2023-02-28T00:49:14;3.70;;;2.60;;
19191;SDS011;9728;48.194;16.346;2023-02-28T00:54:17;5.73;;;3.40;;
19191;SDS011;9728;48.194;16.346;2023-02-28T00:59:21;4.80;;;3.50;;
19191;SDS011;9728;48.194;16.346;2023-02-28T01:04:26;4.83;;;3.30;;
19191;SDS011;9728;48.194;16.346;2023-02-28T01:09:30;5.17;;;2.97;;
19191;SDS011;9728;48.194;16.346;2023-02-28T01:14:34;5.60;;;3.20;;
19191;SDS011;9728;48.194;16.346;2023-02-28T01:19:39;5.90;;;3.17;;
19191;SDS011;9728;48.194;16.346;2023-02-28T01:24:44;4.80;;;2.80;;
19191;SDS011;9728;48.194;16.346;2023-02-28T01:29:50;4.80;;;3.00;;
19191;SDS011;9728;48.194;16.346;2023-02-28T01:34:55;4.27;;;2.97;;
19191;SDS011;9728;48.194;16.346;2023-02-28T01:39:59;5.90;;;3.20;;
19191;SDS011;9728;48.194;16.346;2023-02-28T01:45:05;5.13;;;3.03;;
19191;SDS011;9728;48.194;16.346;2023-02-28T01:50:23;5.93;;;3.40;;
19191;SDS011;9728;48.194;16.346;2023-02-28T01:55:29;6.67;;;3.10;;
19191;SDS011;9728;48.194;16.346;2023-02-28T02:00:33;6.13;;;3.77;;
19191;SDS011;9728;48.194;16.346;2023-02-28T02:05:38;4.50;;;2.80;;
19191;SDS011;9728;48.194;16.346;2023-02-28T02:10:44;5.70;;;3.43;;
19191;SDS011;9728;48.194;16.346;2023-02-28T02:15:53;5.40;;;3.50;;
19191;SDS011;9728;48.194;16.346;2023-02-28T02:32:45;6.43;;;3.40;;
19191;SDS011;9728;48.194;16.346;2023-02-28T02:38:13;4.87;;;3.37;;
19191;SDS011;9728;48.194;16.346;2023-02-28T02:43:22;5.33;;;3.50;;
19191;SDS011;9728;48.194;16.346;2023-02-28T02:48:33;5.17;;;3.33;;
19191;SDS011;9728;48.194;16.346;2023-02-28T02:53:40;4.87;;;3.17;;
19191;SDS011;9728;48.194;16.346;2023-02-28T02:58:47;6.10;;;3.60;;
19191;SDS011;9728;48.194;16.346;2023-02-28T03:03:55;5.93;;;3.80;;
19191;SDS011;9728;48.194;16.346;2023-02-28T03:09:01;5.43;;;3.30;;
19191;SDS011;9728;48.194;16.346;2023-02-28T03:14:19;4.10;;;3.23;;
19191;SDS011;9728;48.194;16.346;2023-02-28T03:19:38;5.43;;;3.13;;
19191;SDS011;9728;48.194;16.346;2023-02-28T03:24:53;6.00;;;3.30;;
19191;SDS011;9728;48.194;16.346;2023-02-28T03:30:03;4.63;;;2.67;;
19191;SDS011;9728;48.194;16.346;2023-02-28T03:35:11;5.30;;;3.30;;
19191;SDS011;9728;48.194;16.346;2023-02-28T03:40:25;6.87;;;3.40;;
19191;SDS011;9728;48.194;16.346;2023-02-28T03:45:35;6.27;;;4.13;;
19191;SDS011;9728;48.194;16.346;2023-02-28T03:50:42;4.80;;;3.17;;
19191;SDS011;9728;48.194;16.346;2023-02-28T03:55:49;5.07;;;3.20;;
19191;SDS011;9728;48.194;16.346;2023-02-28T04:00:58;4.80;;;3.07;;
19191;SDS011;9728;48.194;16.346;2023-02-28T04:06:13;4.27;;;3.23;;
19191;SDS011;9728;48.194;16.346;2023-02-28T04:11:22;5.10;;;3.40;;
19191;SDS011;9728;48.194;16.346;2023-02-28T04:16:30;6.37;;;3.90;;
19191;SDS011;9728;48.194;16.346;2023-02-28T04:21:37;4.77;;;3.50;;
19191;SDS011;9728;48.194;16.346;2023-02-28T04:26:43;7.23;;;3.90;;
19191;SDS011;9728;48.194;16.346;2023-02-28T04:31:47;6.43;;;3.77;;
19191;SDS011;9728;48.194;16.346;2023-02-28T04:36:51;5.97;;;3.50;;
19191;SDS011;9728;48.194;16.346;2023-02-28T04:42:14;5.47;;;3.60;;
19191;SDS011;9728;48.194;16.346;2023-02-28T04:47:18;6.80;;;4.13;;
19191;SDS011;9728;48.194;16.346;2023-02-28T04:52:21;6.83;;;4.23;;
19191;SDS011;9728;48.194;16.346;2023-02-28T04:57:26;7.33;;;4.23;;
19191;SDS011;9728;48.194;16.346;2023-02-28T05:02:33;6.00;;;3.73;;
19191;SDS011;9728;48.194;16.346;2023-02-28T05:07:37;5.70;;;3.60;;
19191;SDS011;9728;48.194;16.346;2023-02-28T05:12:42;7.10;;;3.70;;
19191;SDS011;9728;48.194;16.346;2023-02-28T05:17:46;5.73;;;3.60;;
19191;SDS011;9728;48.194;16.346;2023-02-28T05:22:49;5.67;;;3.47;;
19191;SDS011;9728;48.194;16.346;2023-02-28T05:27:55;5.40;;;3.27;;
19191;SDS011;9728;48.194;16.346;2023-02-28T05:33:02;5.50;;;3.23;;
19191;SDS011;9728;48.194;16.346;2023-02-28T05:38:06;5.67;;;3.40;;
19191;SDS011;9728;48.194;16.346;2023-02-28T05:43:11;3.93;;;3.20;;
19191;SDS011;9728;48.194;16.346;2023-02-28T05:48:15;4.70;;;3.77;;
19191;SDS011;9728;48.194;16.346;2023-02-28T05:53:19;6.50;;;3.53;;
19191;SDS011;9728;48.194;16.346;2023-02-28T05:58:25;6.60;;;3.97;;
19191;SDS011;9728;48.194;16.346;2023-02-28T06:03:32;7.60;;;4.00;;
19191;SDS011;9728;48.194;16.346;2023-02-28T06:08:35;5.97;;;3.90;;
19191;SDS011;9728;48.194;16.346;2023-02-28T06:13:40;7.93;;;4.00;;
19191;SDS011;9728;48.194;16.346;2023-02-28T06:18:44;7.47;;;3.80;;
19191;SDS011;9728;48.194;16.346;2023-02-28T06:23:47;6.97;;;4.17;;
19191;SDS011;9728;48.194;16.346;2023-02-28T06:28:52;7.17;;;4.40;;
19191;SDS011;9728;48.194;16.346;2023-02-28T06:33:56;5.87;;;3.73;;
19191;SDS011;9728;48.194;16.346;2023-02-28T06:39:00;7.53;;;4.43;;
19191;SDS011;9728;48.194;16.346;2023-02-28T06:44:05;5.90;;;3.93;;
19191;SDS011;9728;48.194;16.346;2023-02-28T06:49:17;5.47;;;3.60;;
19191;SDS011;9728;48.194;16.346;2023-02-28T06:54:20;6.93;;;4.77;;
19191;SDS011;9728;48.194;16.346;2023-02-28T06:59:25;7.07;;;4.80;;
19191;SDS011;9728;48.194;16.346;2023-02-28T07:04:29;6.60;;;4.13;;
19191;SDS011;9728;48.194;16.346;2023-02-28T07:09:33;7.70;;;4.80;;
19191;SDS011;9728;48.194;16.346;2023-02-28T07:14:38;7.27;;;4.90;;
19191;SDS011;9728;48.194;16.346;2023-02-28T07:19:41;10.00;;;5.60;;
19191;SDS011;9728;48.194;16.346;2023-02-28T07:24:45;6.60;;;4.70;;
19191;SDS011;9728;48.194;16.346;2023-02-28T07:29:50;10.70;;;5.47;;
19191;SDS011;9728;48.194;16.346;2023-02-28T07:34:53;9.87;;;5.37;;
19191;SDS011;9728;48.194;16.346;2023-02-28T07:39:57;8.17;;;5.13;;
19191;SDS011;9728;48.194;16.346;2023-02-28T07:45:02;8.57;;;4.80;;
19191;SDS011;9728;48.194;16.346;2023-02-28T07:50:07;6.80;;;4.43;;
19191;SDS011;9728;48.194;16.346;2023-02-28T07:55:12;8.40;;;4.83;;
19191;SDS011;9728;48.194;16.346;2023-02-28T08:00:19;8.63;;;4.87;;
19191;SDS011;9728;48.194;16.346;2023-02-28T08:05:23;7.33;;;4.30;;
19191;SDS011;9728;48.194;16.346;2023-02-28T08:10:27;8.70;;;4.83;;
19191;SDS011;9728;48.194;16.346;2023-02-28T08:15:32;7.33;;;4.77;;
19191;SDS011;9728;48.194;16.346;2023-02-28T08:20:35;5.63;;;4.57;;
19191;SDS011;9728;48.194;16.346;2023-02-28T08:25:39;7.73;;;4.80;;
19191;SDS011;9728;48.194;16.346;2023-02-28T08:30:44;6.23;;;4.50;;
19191;SDS011;9728;48.194;16.346;2023-02-28T08:35:48;6.60;;;4.27;;
19191;SDS011;9728;48.194;16.346;2023-02-28T08:40:56;7.47;;;4.50;;
19191;SDS011;9728;48.194;16.346;2023-02-28T08:46:04;6.53;;;4.53;;
19191;SDS011;9728;48.194;16.346;2023-02-28T08:51:08;7.23;;;4.67;;
19191;SDS011;9728;48.194;16.346;2023-02-28T08:56:13;6.87;;;4.10;;
19191;SDS011;9728;48.194;16.346;2023-02-28T09:08:16;7.13;;;4.00;;
19191;SDS011;9728;48.194;16.346;2023-02-28T09:13:23;7.47;;;4.10;;
19191;SDS011;9728;48.194;16.346;2023-02-28T09:18:27;7.33;;;4.17;;
19191;SDS011;9728;48.194;16.346;2023-02-28T09:23:32;7.13;;;4.47;;
19191;SDS011;9728;48.194;16.346;2023-02-28T09:28:36;5.80;;;3.90;;
19191;SDS011;9728;48.194;16.346;2023-02-28T09:33:40;5.87;;;4.30;;
19191;SDS011;9728;48.194;16.346;2023-02-28T09:38:45;6.60;;;3.67;;
19191;SDS011;9728;48.194;16.346;2023-02-28T09:43:50;6.40;;;4.33;;
19191;SDS011;9728;48.194;16.346;2023-02-28T09:48:56;6.67;;;4.53;;
19191;SDS011;9728;48.194;16.346;2023-02-28T09:54:03;5.90;;;3.90;;
19191;SDS011;9728;48.194;16.346;2023-02-28T09:59:10;6.23;;;3.53;;
19191;SDS011;9728;48.194;16.346;2023-02-28T10:04:25;5.50;;;3.80;;
19191;SDS011;9728;48.194;16.346;2023-02-28T10:09:40;7.47;;;4.23;;
19191;SDS011;9728;48.194;16.346;2023-02-28T10:14:45;7.33;;;4.67;;
19191;SDS011;9728;48.194;16.346;2023-02-28T10:19:55;5.53;;;4.27;;
19191;SDS011;9728;48.194;16.346;2023-02-28T10:25:16;6.40;;;3.63;;
19191;SDS011;9728;48.194;16.346;2023-02-28T10:30:22;7.87;;;4.73;;
19191;SDS011;9728;48.194;16.346;2023-02-28T10:35:26;10.83;;;4.93;;
19191;SDS011;9728;48.194;16.346;2023-02-28T10:40:32;5.73;;;4.10;;
19191;SDS011;9728;48.194;16.346;2023-02-28T10:45:37;7.50;;;4.53;;
19191;SDS011;9728;48.194;16.346;2023-02-28T10:50:42;7.30;;;4.73;;
19191;SDS011;9728;48.194;16.346;2023-02-28T10:55:49;6.07;;;3.97;;
19191;SDS011;9728;48.194;16.346;2023-02-28T11:00:59;5.80;;;3.95;;
19191;SDS011;9728;48.194;16.346;2023-02-28T11:06:07;7.32;;;4.40;;
19191;SDS011;9728;48.194;16.346;2023-02-28T11:11:16;7.53;;;4.55;;
19191;SDS011;9728;48.194;16.346;2023-02-28T11:16:21;7.20;;;4.38;;
19191;SDS011;9728;48.194;16.346;2023-02-28T11:21:35;7.10;;;4.75;;
19191;SDS011;9728;48.194;16.346;2023-02-28T11:26:43;7.47;;;5.15;;
19191;SDS011;9728;48.194;16.346;2023-02-28T11:32:00;7.78;;;4.30;;
19191;SDS011;9728;48.194;16.346;2023-02-28T11:37:16;6.53;;;4.40;;
19191;SDS011;9728;48.194;16.346;2023-02-28T11:42:27;7.03;;;4.38;;
19191;SDS011;9728;48.194;16.346;2023-02-28T11:47:43;6.03;;;4.57;;
19191;SDS011;9728;48.194;16.346;2023-02-28T11:52:52;7.32;;;4.72;;
19191;SDS011;9728;48.194;16.346;2023-02-28T11:58:14;7.07;;;4.40;;
19191;SDS011;9728;48.194;16.346;2023-02-28T12:03:28;5.72;;;4.50;;
19191;SDS011;9728;48.194;16.346;2023-02-28T12:08:44;6.25;;;3.95;;
19191;SDS011;9728;48.194;16.346;2023-02-28T12:13:59;5.90;;;4.30;;
19191;SDS011;9728;48.194;16.346;2023-02-28T12:19:15;6.25;;;4.40;;
19191;SDS011;9728;48.194;16.346;2023-02-28T12:24:36;6.15;;;4.10;;
19191;SDS011;9728;48.194;16.346;2023-02-28T12:29:53;5.00;;;3.42;;
19191;SDS011;9728;48.194;16.346;2023-02-28T12:35:01;7.20;;;4.00;;
19191;SDS011;9728;48.194;16.346;2023-02-28T12:40:09;6.55;;;4.30;;
19191;SDS011;9728;48.194;16.346;2023-02-28T12:45:18;11.40;;;4.25;;
19191;SDS011;9728;48.194;16.346;2023-02-28T12:50:23;8.07;;;4.30;;
19191;SDS011;9728;48.194;16.346;2023-02-28T12:55:30;4.72;;;3.03;;
19191;SDS011;9728;48.194;16.346;2023-02-28T13:00:46;10.00;;;4.15;;
19191;SDS011;9728;48.194;16.346;2023-02-28T13:06:05;6.78;;;3.38;;
19191;SDS011;9728;48.194;16.346;2023-02-28T13:11:24;5.60;;;4.00;;
19191;SDS011;9728;48.194;16.346;2023-02-28T13:22:18;6.28;;;3.15;;
19191;SDS011;9728;48.194;16.346;2023-02-28T13:27:39;4.15;;;2.90;;
19191;SDS011;9728;48.194;16.346;2023-02-28T13:32:45;5.07;;;3.53;;
19191;SDS011;9728;48.194;16.346;2023-02-28T13:37:48;5.40;;;3.60;;
19191;SDS011;9728;48.194;16.346;2023-02-28T13:42:53;4.53;;;3.30;;
19191;SDS011;9728;48.194;16.346;2023-02-28T13:48:01;6.07;;;3.30;;
19191;SDS011;9728;48.194;16.346;2023-02-28T13:53:25;4.65;;;3.33;;
19191;SDS011;9728;48.194;16.346;2023-02-28T13:58:41;4.50;;;3.35;;
19191;SDS011;9728;48.194;16.346;2023-02-28T14:09:19;4.23;;;3.20;;
19191;SDS011;9728;48.194;16.346;2023-02-28T14:19:58;3.93;;;3.00;;
19191;SDS011;9728;48.194;16.346;2023-02-28T14:25:08;5.93;;;3.10;;
19191;SDS011;9728;48.194;16.346;2023-02-28T14:36:06;4.57;;;3.27;;
19191;SDS011;9728;48.194;16.346;2023-02-28T14:41:20;4.80;;;3.40;;
19191;SDS011;9728;48.194;16.346;2023-02-28T14:46:34;4.30;;;3.00;;
19191;SDS011;9728;48.194;16.346;2023-02-28T14:51:42;5.43;;;3.47;;
19191;SDS011;9728;48.194;16.346;2023-02-28T14:56:48;4.30;;;3.30;;
19191;SDS011;9728;48.194;16.346;2023-02-28T15:07:23;5.40;;;3.70;;
19191;SDS011;9728;48.194;16.346;2023-02-28T15:12:30;7.90;;;3.93;;
19191;SDS011;9728;48.194;16.346;2023-02-28T15:17:33;5.80;;;3.80;;
19191;SDS011;9728;48.194;16.346;2023-02-28T15:22:39;4.63;;;3.53;;
19191;SDS011;9728;48.194;16.346;2023-02-28T15:27:44;5.20;;;4.13;;
19191;SDS011;9728;48.194;16.346;2023-02-28T15:33:05;5.83;;;4.00;;
19191;SDS011;9728;48.194;16.346;2023-02-28T15:38:23;7.83;;;4.40;;
19191;SDS011;9728;48.194;16.346;2023-02-28T15:43:29;7.50;;;4.60;;
19191;SDS011;9728;48.194;16.346;2023-02-28T15:48:34;5.93;;;4.03;;
19191;SDS011;9728;48.194;16.346;2023-02-28T15:53:45;5.37;;;3.37;;
19191;SDS011;9728;48.194;16.346;2023-02-28T15:58:53;5.60;;;3.77;;
19191;SDS011;9728;48.194;16.346;2023-02-28T16:04:00;5.43;;;3.47;;
19191;SDS011;9728;48.194;16.346;2023-02-28T16:09:08;6.63;;;4.00;;
19191;SDS011;9728;48.194;16.346;2023-02-28T16:14:14;6.33;;;4.40;;
19191;SDS011;9728;48.194;16.346;2023-02-28T16:19:19;6.17;;;3.87;;
19191;SDS011;9728;48.194;16.346;2023-02-28T16:24:26;5.93;;;3.90;;
19191;SDS011;9728;48.194;16.346;2023-02-28T16:29:31;5.83;;;4.13;;
19191;SDS011;9728;48.194;16.346;2023-02-28T16:34:37;5.67;;;4.10;;
19191;SDS011;9728;48.194;16.346;2023-02-28T16:39:46;4.93;;;3.77;;
19191;SDS011;9728;48.194;16.346;2023-02-28T16:44:52;4.47;;;3.67;;
19191;SDS011;9728;48.194;16.346;2023-02-28T16:49:57;3.87;;;3.13;;
19191;SDS011;9728;48.194;16.346;2023-02-28T16:55:03;6.37;;;4.20;;
19191;SDS011;9728;48.194;16.346;2023-02-28T17:00:11;5.90;;;4.00;;
19191;SDS011;9728;48.194;16.346;2023-02-28T17:05:16;4.83;;;4.03;;
19191;SDS011;9728;48.194;16.346;2023-02-28T17:10:23;6.80;;;4.10;;
19191;SDS011;9728;48.194;16.346;2023-02-28T17:15:28;6.53;;;4.13;;
19191;SDS011;9728;48.194;16.346;2023-02-28T17:20:33;7.30;;;4.47;;
19191;SDS011;9728;48.194;16.346;2023-02-28T17:25:44;6.13;;;4.07;;
19191;SDS011;9728;48.194;16.346;2023-02-28T17:30:58;5.67;;;4.03;;
19191;SDS011;9728;48.194;16.346;2023-02-28T17:36:02;5.20;;;3.73;;
19191;SDS011;9728;48.194;16.346;2023-02-28T17:41:10;6.57;;;4.33;;
19191;SDS011;9728;48.194;16.346;2023-02-28T17:46:15;6.50;;;4.37;;
19191;SDS011;9728;48.194;16.346;2023-02-28T17:51:22;8.40;;;4.70;;
19191;SDS011;9728;48.194;16.346;2023-02-28T17:56:34;6.33;;;4.80;;
19191;SDS011;9728;48.194;16.346;2023-02-28T18:01:40;6.40;;;4.43;;
19191;SDS011;9728;48.194;16.346;2023-02-28T18:06:45;7.40;;;4.70;;
19191;SDS011;9728;48.194;16.346;2023-02-28T18:11:58;5.57;;;4.40;;
19191;SDS011;9728;48.194;16.346;2023-02-28T18:17:03;7.10;;;3.97;;
19191;SDS011;9728;48.194;16.346;2023-02-28T18:22:10;6.70;;;3.87;;
19191;SDS011;9728;48.194;16.346;2023-02-28T18:27:16;6.40;;;4.20;;
19191;SDS011;9728;48.194;16.346;2023-02-28T18:32:20;5.53;;;3.60;;
19191;SDS011;9728;48.194;16.346;2023-02-28T18:37:27;5.57;;;3.10;;
19191;SDS011;9728;48.194;16.346;2023-02-28T18:42:34;6.93;;;4.03;;
19191;SDS011;9728;48.194;16.346;2023-02-28T18:47:40;5.70;;;3.57;;
19191;SDS011;9728;48.194;16.346;2023-02-28T18:52:46;5.93;;;3.70;;
19191;SDS011;9728;48.194;16.346;2023-02-28T18:57:55;7.43;;;4.37;;
19191;SDS011;9728;48.194;16.346;2023-02-28T19:03:01;6.50;;;3.50;;
19191;SDS011;9728;48.194;16.346;2023-02-28T19:08:08;7.63;;;4.07;;
19191;SDS011;9728;48.194;16.346;2023-02-28T19:13:15;7.17;;;4.53;;
19191;SDS011;9728;48.194;16.346;2023-02-28T19:18:22;6.10;;;4.30;;
19191;SDS011;9728;48.194;16.346;2023-02-28T19:23:27;6.40;;;4.07;;
19191;SDS011;9728;48.194;16.346;2023-02-28T19:28:38;5.80;;;3.70;;
19191;SDS011;9728;48.194;16.346;2023-02-28T19:33:46;6.83;;;3.80;;
19191;SDS011;9728;48.194;16.346;2023-02-28T19:38:56;8.47;;;4.97;;
19191;SDS011;9728;48.194;16.346;2023-02-28T19:44:06;6.30;;;4.00;;
19191;SDS011;9728;48.194;16.346;2023-02-28T19:49:15;6.57;;;3.90;;
19191;SDS011;9728;48.194;16.346;2023-02-28T19:54:22;6.83;;;4.23;;
19191;SDS011;9728;48.194;16.346;2023-02-28T19:59:30;7.13;;;4.53;;
19191;SDS011;9728;48.194;16.346;2023-02-28T20:04:40;5.83;;;4.53;;
19191;SDS011;9728;48.194;16.346;2023-02-28T20:09:46;5.17;;;4.07;;
19191;SDS011;9728;48.194;16.346;2023-02-28T20:14:54;6.93;;;4.03;;
19191;SDS011;9728;48.194;16.346;2023-02-28T20:20:00;6.17;;;3.90;;
19191;SDS011;9728;48.194;16.346;2023-02-28T20:25:05;6.23;;;4.37;;
19191;SDS011;9728;48.194;16.346;2023-02-28T20:30:15;6.93;;;4.63;;
19191;SDS011;9728;48.194;16.346;2023-02-28T20:35:23;6.90;;;4.33;;
19191;SDS011;9728;48.194;16.346;2023-02-28T20:40:28;6.97;;;4.27;;
19191;SDS011;9728;48.194;16.346;2023-02-28T20:45:35;7.77;;;5.10;;
19191;SDS011;9728;48.194;16.346;2023-02-28T20:50:46;11.87;;;5.13;;
19191;SDS011;9728;48.194;16.346;2023-02-28T20:55:53;8.93;;;5.17;;
19191;SDS011;9728;48.194;16.346;2023-02-28T21:01:00;8.87;;;5.13;;
19191;SDS011;9728;48.194;16.346;2023-02-28T21:06:06;8.50;;;5.33;;
19191;SDS011;9728;48.194;16.346;2023-02-28T21:11:12;6.83;;;4.70;;
19191;SDS011;9728;48.194;16.346;2023-02-28T21:16:23;8.90;;;5.20;;
19191;SDS011;9728;48.194;16.346;2023-02-28T21:21:30;7.87;;;4.77;;
19191;SDS011;9728;48.194;16.346;2023-02-28T21:26:37;8.10;;;4.83;;
19191;SDS011;9728;48.194;16.346;2023-02-28T21:31:48;8.67;;;5.90;;
19191;SDS011;9728;48.194;16.346;2023-02-28T21:36:52;9.30;;;6.20;;
19191;SDS011;9728;48.194;16.346;2023-02-28T21:41:55;10.90;;;5.60;;
19191;SDS011;9728;48.194;16.346;2023-02-28T21:47:06;11.97;;;6.53;;
19191;SDS011;9728;48.194;16.346;2023-02-28T21:52:09;12.30;;;6.23;;
19191;SDS011;9728;48.194;16.346;2023-02-28T21:57:13;9.87;;;6.07;;
19191;SDS011;9728;48.194;16.346;2023-02-28T22:02:18;10.50;;;5.60;;
19191;SDS011;9728;48.194;16.346;2023-02-28T22:07:22;11.20;;;6.43;;
19191;SDS011;9728;48.194;16.346;2023-02-28T22:12:27;12.10;;;6.30;;
19191;SDS011;9728;48.194;16.346;2023-02-28T22:17:33;12.20;;;6.33;;
19191;SDS011;9728;48.194;16.346;2023-02-28T22:22:37;14.53;;;6.83;;
19191;SDS011;9728;48.194;16.346;2023-02-28T22:27:41;10.20;;;6.20;;
19191;SDS011;9728;48.194;16.346;2023-02-28T22:32:46;11.77;;;6.27;;
19191;SDS011;9728;48.194;16.346;2023-02-28T22:37:49;9.60;;;6.13;;
19191;SDS011;9728;48.194;16.346;2023-02-28T22:42:53;11.10;;;5.73;;
19191;SDS011;9728;48.194;16.346;2023-02-28T22:47:59;11.23;;;6.30;;
19191;SDS011;9728;48.194;16.346;2023-02-28T22:53:03;8.97;;;5.47;;
19191;SDS011;9728;48.194;16.346;2023-02-28T22:58:07;10.33;;;5.77;;
19191;SDS011;9728;48.194;16.346;2023-02-28T23:03:11;9.73;;;6.10;;
19191;SDS011;9728;48.194;16.346;2023-02-28T23:08:15;13.47;;;6.60;;
19191;SDS011;9728;48.194;16.346;2023-02-28T23:13:23;10.50;;;6.70;;
19191;SDS011;9728;48.194;16.346;2023-02-28T23:18:28;12.07;;;6.77;;
19191;SDS011;9728;48.194;16.346;2023-02-28T23:23:32;11.27;;;6.47;;
19191;SDS011;9728;48.194;16.346;2023-02-28T23:28:36;10.77;;;6.87;;
19191;SDS011;9728;48.194;16.346;2023-02-28T23:33:41;10.60;;;6.13;;
19191;SDS011;9728;48.194;16.346;2023-02-28T23:38:47;9.90;;;6.20;;
19191;SDS011;9728;48.194;16.346;2023-02-28T23:43:52;9.53;;;6.17;;
19191;SDS011;9728;48.194;16.346;2023-02-28T23:48:58;9.33;;;6.00;;
19191;SDS011;9728;48.194;16.346;2023-02-28T23:54:02;9.67;;;5.77;;
19191;SDS011;9728;48.194;16.346;2023-02-28T23:59:06;12.00;;;6.17;;
